Time;durP1;ratioP1;P1;durP2;ratioP2;P2;SDS_P1;SDS_P2;PMS_P1;PMS_P2;Temp;Humidity;BMP_temperature;BMP_pressure;BME280_temperature;BME280_humidity;BME280_pressure;Samples;Min_cycle;Max_cycle;Signal;HPM_P1;HPM_P2
2023/08/12 00:00:27;;;;;;;9.02;6.32;;;;;;;20.95;100.00;101743.50;5069952;28;20053;-37
2023/08/12 00:02:53;;;;;;;9.07;6.90;;;;;;;20.96;100.00;101743.19;5070259;28;20353;-37
2023/08/12 00:05:18;;;;;;;9.88;7.38;;;;;;;20.94;100.00;101747.34;5069974;28;20024;-37
2023/08/12 00:07:44;;;;;;;8.48;6.75;;;;;;;20.92;100.00;101752.28;5070426;28;20100;-37
2023/08/12 00:10:11;;;;;;;10.82;6.72;;;;;;;20.87;100.00;101744.88;5062206;28;20030;-37
2023/08/12 00:12:37;;;;;;;11.27;7.10;;;;;;;20.98;100.00;101751.16;5056609;28;20019;-37
2023/08/12 00:15:06;;;;;;;10.30;7.25;;;;;;;20.88;100.00;101756.69;5055926;28;20021;-37
2023/08/12 00:17:32;;;;;;;8.95;6.78;;;;;;;20.79;100.00;101742.72;5056738;28;20021;-37
2023/08/12 00:19:57;;;;;;;6.72;5.88;;;;;;;20.81;100.00;101730.31;5055922;28;20016;-37
2023/08/12 00:22:22;;;;;;;11.88;7.20;;;;;;;20.91;100.00;101734.97;5056210;28;20101;-37
2023/08/12 00:24:48;;;;;;;9.80;7.35;;;;;;;20.87;100.00;101738.56;5056328;28;20024;-37
2023/08/12 00:27:14;;;;;;;8.68;6.80;;;;;;;20.84;100.00;101739.94;5056341;28;20445;-37
2023/08/12 00:29:39;;;;;;;8.77;6.72;;;;;;;20.81;100.00;101722.06;5055986;28;20013;-37
2023/08/12 00:32:05;;;;;;;10.00;6.60;;;;;;;20.74;100.00;101701.47;5056000;28;20031;-37
2023/08/12 00:34:30;;;;;;;10.55;7.35;;;;;;;20.74;100.00;101706.97;5055887;28;20031;-37
2023/08/12 00:36:55;;;;;;;11.07;7.30;;;;;;;20.78;100.00;101725.38;5055963;28;20091;-37
2023/08/12 00:39:21;;;;;;;11.23;7.68;;;;;;;20.81;100.00;101724.81;5055776;28;20060;-37
2023/08/12 00:41:46;;;;;;;9.98;7.05;;;;;;;20.90;100.00;101713.25;5055549;28;20104;-38
2023/08/12 00:44:12;;;;;;;10.55;7.28;;;;;;;20.83;100.00;101697.03;5056274;28;20033;-37
2023/08/12 00:46:39;;;;;;;11.30;7.18;;;;;;;20.77;100.00;101709.97;5055785;28;20028;-37
2023/08/12 00:49:05;;;;;;;9.43;6.97;;;;;;;20.72;100.00;101703.69;5055700;28;20029;-38
2023/08/12 00:51:30;;;;;;;10.85;7.45;;;;;;;20.74;100.00;101707.81;5055621;28;20031;-38
2023/08/12 00:53:58;;;;;;;8.55;6.80;;;;;;;20.73;100.00;101697.06;5055529;28;20028;-37
2023/08/12 00:56:23;;;;;;;9.40;6.97;;;;;;;20.75;100.00;101695.72;5056084;28;20079;-37
2023/08/12 00:58:49;;;;;;;10.60;7.18;;;;;;;20.73;100.00;101702.56;5055640;28;20446;-37
2023/08/12 01:01:15;;;;;;;10.65;6.82;;;;;;;20.76;100.00;101697.34;5056274;28;20119;-37
2023/08/12 01:03:41;;;;;;;12.07;7.03;;;;;;;20.71;100.00;101699.28;5055279;28;20024;-37
2023/08/12 01:06:07;;;;;;;9.93;6.75;;;;;;;20.73;100.00;101689.66;5055902;28;20013;-37
2023/08/12 01:08:34;;;;;;;10.48;7.68;;;;;;;20.73;100.00;101684.16;5056059;28;20036;-37
2023/08/12 01:11:26;;;;;;;10.93;7.28;;;;;;;20.72;100.00;101688.00;5056113;28;20028;-37
2023/08/12 01:14:03;;;;;;;11.48;7.43;;;;;;;20.76;100.00;101682.78;5055761;28;20334;-37
2023/08/12 01:16:32;;;;;;;10.60;7.10;;;;;;;20.65;100.00;101676.50;5055956;28;20074;-37
2023/08/12 01:18:59;;;;;;;9.80;7.35;;;;;;;20.65;100.00;101679.25;5055249;28;20106;-37
2023/08/12 01:21:29;;;;;;;10.52;7.28;;;;;;;20.66;100.00;101667.16;5054926;28;20029;-37
2023/08/12 01:23:55;;;;;;;11.68;7.07;;;;;;;20.70;100.00;101668.25;5054996;28;20052;-37
2023/08/12 01:26:20;;;;;;;9.80;7.28;;;;;;;20.65;100.00;101668.25;5054928;28;20060;-37
2023/08/12 01:28:46;;;;;;;10.65;7.88;;;;;;;20.57;100.00;101655.88;5055110;28;20025;-37
2023/08/12 01:31:18;;;;;;;10.02;7.93;;;;;;;20.58;100.00;101653.97;5055190;28;20021;-37
2023/08/12 01:33:56;;;;;;;12.80;8.07;;;;;;;20.66;100.00;101658.91;5055134;28;20025;-37
2023/08/12 01:36:24;;;;;;;9.48;7.80;;;;;;;20.65;100.00;101650.94;5054725;28;20047;-37
2023/08/12 01:38:51;;;;;;;9.65;7.47;;;;;;;20.66;100.00;101645.16;5054310;28;20373;-37
2023/08/12 01:41:18;;;;;;;8.80;7.82;;;;;;;20.60;100.00;101649.03;5054697;28;20029;-37
2023/08/12 01:43:44;;;;;;;10.55;8.52;;;;;;;20.57;100.00;101652.31;5054873;28;20102;-37
2023/08/12 01:46:10;;;;;;;10.38;8.02;;;;;;;20.59;100.00;101644.63;5055127;28;20060;-37
2023/08/12 01:48:35;;;;;;;12.38;8.35;;;;;;;20.59;100.00;101650.09;5054971;28;20416;-37
2023/08/12 01:51:00;;;;;;;12.93;8.35;;;;;;;20.59;100.00;101650.09;5054543;28;20119;-37
2023/08/12 01:53:26;;;;;;;11.27;8.73;;;;;;;20.57;100.00;101646.81;5054380;28;20043;-37
2023/08/12 01:55:52;;;;;;;11.48;8.60;;;;;;;20.58;100.00;101643.78;5054702;28;20021;-37
2023/08/12 01:58:17;;;;;;;10.15;8.68;;;;;;;20.57;100.00;101644.09;5054387;28;20150;-37
2023/08/12 02:00:43;;;;;;;9.90;8.30;;;;;;;20.54;100.00;101633.63;5053938;28;20032;-37
2023/08/12 02:03:08;;;;;;;12.93;8.90;;;;;;;20.51;100.00;101637.78;5054578;28;20028;-37
2023/08/12 02:05:33;;;;;;;10.43;7.72;;;;;;;20.53;100.00;101630.06;5052961;28;20028;-37
2023/08/12 02:07:59;;;;;;;11.43;8.73;;;;;;;20.48;100.00;101629.25;5054179;28;20511;-37
2023/08/12 02:10:24;;;;;;;10.90;8.00;;;;;;;20.54;100.00;101633.63;5054676;28;20025;-37
2023/08/12 02:12:50;;;;;;;9.73;7.70;;;;;;;20.49;100.00;101631.72;5054420;28;20032;-37
2023/08/12 02:15:15;;;;;;;10.25;8.80;;;;;;;20.47;100.00;101622.13;5053705;28;20091;-37
2023/08/12 02:17:40;;;;;;;8.52;7.22;;;;;;;20.46;100.00;101624.03;5054205;28;20071;-37
2023/08/12 02:20:06;;;;;;;10.00;7.90;;;;;;;20.47;100.00;101630.38;5054000;28;20024;-37
2023/08/12 02:22:32;;;;;;;12.32;8.63;;;;;;;20.51;100.00;101628.72;5054194;28;20472;-37
2023/08/12 02:24:58;;;;;;;10.68;8.43;;;;;;;20.51;100.00;101631.47;5053889;28;20024;-37
2023/08/12 02:27:23;;;;;;;11.27;8.20;;;;;;;20.40;100.00;101613.31;5053925;28;20024;-37
2023/08/12 02:29:48;;;;;;;10.35;7.70;;;;;;;20.49;100.00;101628.16;5054075;28;20024;-37
2023/08/12 02:32:14;;;;;;;8.30;7.40;;;;;;;20.52;100.00;101611.13;5053327;28;20012;-37
2023/08/12 02:34:39;;;;;;;12.68;7.63;;;;;;;20.48;100.00;101618.28;5053684;28;20029;-37
2023/08/12 02:37:04;;;;;;;8.88;7.20;;;;;;;20.46;100.00;101606.72;5054101;28;20087;-37
2023/08/12 02:39:30;;;;;;;9.48;7.05;;;;;;;20.44;100.00;101608.91;5054115;28;20112;-37
2023/08/12 02:41:55;;;;;;;9.73;7.47;;;;;;;20.43;100.00;101610.00;5053460;28;20033;-37
2023/08/12 02:44:20;;;;;;;8.73;7.00;;;;;;;20.39;100.00;101600.69;5053615;28;20036;-37
2023/08/12 02:46:46;;;;;;;9.65;6.75;;;;;;;20.42;100.00;101598.22;5054146;28;20060;-37
2023/08/12 02:49:11;;;;;;;10.25;6.43;;;;;;;20.37;100.00;101597.41;5053547;28;20024;-37
2023/08/12 02:51:36;;;;;;;10.05;6.47;;;;;;;20.44;100.00;101596.00;5053280;28;20017;-37
2023/08/12 02:54:02;;;;;;;11.02;6.97;;;;;;;20.41;100.00;101596.56;5053497;28;20074;-37
2023/08/12 02:56:27;;;;;;;10.15;7.10;;;;;;;20.36;100.00;101584.78;5054114;28;20028;-37
2023/08/12 02:58:52;;;;;;;12.50;7.05;;;;;;;20.37;100.00;101586.41;5053844;28;20461;-37
2023/08/12 03:01:18;;;;;;;9.30;6.82;;;;;;;20.37;100.00;101580.91;5054019;28;20175;-37
2023/08/12 03:03:44;;;;;;;8.57;6.25;;;;;;;20.38;100.00;101577.06;5053131;28;20142;-37
2023/08/12 03:06:09;;;;;;;11.57;6.03;;;;;;;20.26;100.00;101575.47;5053511;28;20465;-38
2023/08/12 03:08:35;;;;;;;7.90;5.78;;;;;;;20.39;100.00;101584.19;5053368;28;20446;-37
2023/08/12 03:11:02;;;;;;;9.23;6.57;;;;;;;20.32;100.00;101579.84;5053044;28;20025;-37
2023/08/12 03:13:28;;;;;;;7.10;5.82;;;;;;;20.27;100.00;101570.78;5053911;28;20021;-37
2023/08/12 03:15:53;;;;;;;8.90;6.80;;;;;;;20.24;100.00;101571.31;5054153;28;20060;-37
2023/08/12 03:18:19;;;;;;;7.72;5.65;;;;;;;20.25;100.00;101562.84;5052987;28;20049;-37
2023/08/12 03:20:44;;;;;;;7.95;5.53;;;;;;;20.26;100.00;101558.97;5053777;28;20029;-37
2023/08/12 03:23:09;;;;;;;7.63;5.38;;;;;;;20.30;100.00;101565.56;5053324;28;20074;-37
2023/08/12 03:25:35;;;;;;;9.77;6.03;;;;;;;20.22;100.00;101566.13;5052994;28;20025;-37
2023/08/12 03:28:00;;;;;;;7.10;5.50;;;;;;;20.21;100.00;101567.22;5053497;28;20029;-37
2023/08/12 03:30:25;;;;;;;7.28;5.47;;;;;;;20.15;100.00;101551.03;5052880;28;20074;-37
2023/08/12 03:32:52;;;;;;;6.57;5.60;;;;;;;20.20;100.00;101560.06;5053207;28;20108;-37
2023/08/12 03:35:18;;;;;;;6.47;5.30;;;;;;;20.19;100.00;101563.94;5052798;28;20461;-37
2023/08/12 03:37:43;;;;;;;7.60;5.40;;;;;;;20.13;100.00;101548.56;5053330;28;20035;-37
2023/08/12 03:40:09;;;;;;;6.65;5.18;;;;;;;20.12;100.00;101546.94;5053050;28;20032;-37
2023/08/12 03:42:34;;;;;;;6.72;4.60;;;;;;;20.11;100.00;101538.97;5052762;28;20116;-37
2023/08/12 03:44:59;;;;;;;7.03;4.82;;;;;;;20.05;100.00;101538.97;5054507;28;20025;-37
2023/08/12 03:47:25;;;;;;;6.88;4.75;;;;;;;20.02;100.00;101539.53;5056874;28;20449;-37
2023/08/12 03:49:50;;;;;;;7.10;4.43;;;;;;;19.98;100.00;101540.38;5056754;28;20067;-37
2023/08/12 03:52:16;;;;;;;5.95;4.50;;;;;;;19.93;100.00;101532.97;5057318;28;20025;-38
2023/08/12 03:54:41;;;;;;;9.25;4.65;;;;;;;19.92;100.00;101538.75;5057261;28;20354;-37
2023/08/12 03:57:06;;;;;;;8.48;4.82;;;;;;;19.94;100.00;101533.78;5057255;28;20028;-37
2023/08/12 03:59:32;;;;;;;7.95;4.75;;;;;;;19.85;100.00;101528.03;5057404;28;20124;-37
2023/08/12 04:01:57;;;;;;;9.30;4.88;;;;;;;19.90;100.00;101521.69;5056843;28;20033;-37
2023/08/12 04:04:23;;;;;;;5.55;3.72;;;;;;;19.85;100.00;101527.19;5056183;28;20052;-37
2023/08/12 04:06:51;;;;;;;6.28;4.20;;;;;;;19.91;100.00;101526.09;5056484;28;20017;-37
2023/08/12 04:09:17;;;;;;;6.70;4.60;;;;;;;19.85;100.00;101522.53;5056134;28;20036;-37
2023/08/12 04:11:43;;;;;;;7.40;4.65;;;;;;;19.80;100.00;101508.81;5056762;28;20398;-37
2023/08/12 04:14:08;;;;;;;7.65;3.90;;;;;;;19.86;100.00;101524.16;5056394;28;20135;-37
2023/08/12 04:16:34;;;;;;;5.80;4.22;;;;;;;19.87;100.00;101522.28;5056914;28;20388;-37
2023/08/12 04:18:59;;;;;;;6.45;4.10;;;;;;;19.90;100.00;101518.97;5055843;28;20127;-37
2023/08/12 04:21:24;;;;;;;7.47;4.50;;;;;;;19.86;100.00;101506.88;5055937;28;20025;-37
2023/08/12 04:23:50;;;;;;;6.10;3.95;;;;;;;19.93;100.00;101505.50;5056133;28;20044;-37
2023/08/12 04:26:15;;;;;;;6.35;3.80;;;;;;;19.93;100.00;101499.19;5056175;28;20029;-37
2023/08/12 04:28:41;;;;;;;9.60;4.32;;;;;;;19.89;100.00;101498.09;5056316;28;20025;-37
2023/08/12 04:31:09;;;;;;;7.97;4.32;;;;;;;19.88;100.00;101497.28;5056309;28;20029;-37
2023/08/12 04:33:35;;;;;;;8.52;4.30;;;;;;;19.89;100.00;101484.38;5055678;28;20112;-37
2023/08/12 04:36:00;;;;;;;5.30;3.90;;;;;;;19.96;100.00;101490.41;5056253;28;20061;-37
2023/08/12 04:38:26;;;;;;;6.05;3.90;;;;;;;19.97;100.00;101497.56;5055528;28;20029;-37
2023/08/12 04:40:54;;;;;;;6.60;4.10;;;;;;;19.93;100.00;101494.53;5056066;28;20021;-37
2023/08/12 04:43:20;;;;;;;4.97;3.72;;;;;;;19.91;100.00;101493.16;5056059;28;20051;-37
2023/08/12 04:45:46;;;;;;;7.50;4.63;;;;;;;19.89;100.00;101504.41;5055921;28;20053;-37
2023/08/12 04:48:12;;;;;;;7.35;4.00;;;;;;;19.83;100.00;101497.31;5055691;28;20473;-37
2023/08/12 04:50:38;;;;;;;8.02;4.07;;;;;;;19.85;100.00;101497.84;5055585;28;20071;-37
2023/08/12 04:53:04;;;;;;;7.05;3.90;;;;;;;19.77;100.00;101471.78;5055906;28;20052;-37
2023/08/12 04:55:30;;;;;;;6.15;3.58;;;;;;;19.70;100.00;101468.50;5055400;28;20064;-37
2023/08/12 04:57:56;;;;;;;4.97;3.30;;;;;;;19.70;100.00;101484.97;5056061;28;20445;-37
2023/08/12 05:00:22;;;;;;;5.75;3.72;;;;;;;19.71;100.00;101488.53;5055189;28;20047;-37
2023/08/12 05:02:47;;;;;;;6.47;3.50;;;;;;;19.65;100.00;101487.72;5055505;28;20033;-37
2023/08/12 05:05:13;;;;;;;7.32;3.92;;;;;;;19.51;100.00;101470.97;5055178;28;20040;-37
2023/08/12 05:07:38;;;;;;;6.47;3.80;;;;;;;19.56;100.00;101481.91;5055916;28;20029;-37
2023/08/12 05:10:04;;;;;;;6.05;4.03;;;;;;;19.55;100.00;101473.97;5055254;28;20025;-37
2023/08/12 05:12:29;;;;;;;6.13;4.20;;;;;;;19.51;100.00;101475.63;5055543;28;20017;-37
2023/08/12 05:14:55;;;;;;;5.25;4.40;;;;;;;19.45;100.00;101465.75;5055181;28;20048;-37
2023/08/12 05:17:21;;;;;;;8.38;4.65;;;;;;;19.49;100.00;101477.81;5055409;28;20035;-37
2023/08/12 05:19:46;;;;;;;7.20;3.90;;;;;;;19.47;100.00;101480.00;5055617;28;20174;-37
2023/08/12 05:22:11;;;;;;;6.07;4.30;;;;;;;19.34;100.00;101453.16;5055411;28;20108;-37
2023/08/12 05:24:37;;;;;;;9.07;5.05;;;;;;;19.32;100.00;101455.34;5055024;28;20100;-37
2023/08/12 05:27:04;;;;;;;6.82;4.10;;;;;;;19.39;100.00;101478.66;5055270;28;20083;-37
2023/08/12 05:29:29;;;;;;;5.35;3.85;;;;;;;19.39;100.00;101472.34;5054557;28;20029;-37
2023/08/12 05:31:54;;;;;;;6.97;4.07;;;;;;;19.38;100.00;101466.06;5055389;28;20078;-37
2023/08/12 05:34:20;;;;;;;6.78;4.00;;;;;;;19.40;100.00;101465.75;5054272;28;20029;-37
2023/08/12 05:36:45;;;;;;;7.80;4.60;;;;;;;19.34;100.00;101462.22;5054483;28;20054;-37
2023/08/12 05:39:11;;;;;;;6.35;4.25;;;;;;;19.38;100.00;101455.06;5054093;28;20108;-37
2023/08/12 05:41:36;;;;;;;7.75;4.72;;;;;;;19.32;100.00;101449.84;5054390;28;20028;-37
2023/08/12 05:44:01;;;;;;;6.15;4.85;;;;;;;19.33;100.00;101457.00;5054590;28;20017;-37
2023/08/12 05:46:27;;;;;;;5.75;3.92;;;;;;;19.34;100.00;101466.88;5054607;28;20060;-37
2023/08/12 05:48:52;;;;;;;7.32;4.55;;;;;;;19.32;100.00;101460.81;5054275;28;20029;-37
2023/08/12 05:51:17;;;;;;;5.47;4.25;;;;;;;19.36;100.00;101467.41;5053912;28;20369;-37
2023/08/12 05:53:43;;;;;;;5.63;4.22;;;;;;;19.39;100.00;101461.38;5054140;28;20074;-37
2023/08/12 05:56:08;;;;;;;6.57;3.97;;;;;;;19.38;100.00;101448.78;5053856;28;20028;-37
2023/08/12 05:58:33;;;;;;;5.95;4.57;;;;;;;19.32;100.00;101444.38;5054060;28;20056;-37
2023/08/12 06:00:59;;;;;;;5.32;3.90;;;;;;;19.41;100.00;101450.94;5054361;28;20021;-37
2023/08/12 06:03:24;;;;;;;5.18;4.13;;;;;;;19.40;100.00;101446.56;5053692;28;20029;-37
2023/08/12 06:05:49;;;;;;;5.90;4.47;;;;;;;19.38;100.00;101452.34;5054030;28;20453;-37
2023/08/12 06:08:15;;;;;;;5.47;4.22;;;;;;;19.37;100.00;101436.13;5053715;28;20052;-37
2023/08/12 06:10:41;;;;;;;6.18;4.40;;;;;;;19.35;100.00;101443.84;5054144;28;20099;-37
2023/08/12 06:13:06;;;;;;;6.15;4.50;;;;;;;19.38;100.00;101440.56;5054136;28;20056;-37
2023/08/12 06:15:33;;;;;;;5.40;3.90;;;;;;;19.38;100.00;101437.81;5054402;28;20028;-37
2023/08/12 06:17:59;;;;;;;5.22;3.80;;;;;;;19.43;100.00;101443.28;5054284;28;20086;-37
2023/08/12 06:20:24;;;;;;;4.25;3.55;;;;;;;19.41;100.00;101440.78;5054509;28;20059;-37
2023/08/12 06:22:51;;;;;;;5.05;3.65;;;;;;;19.39;100.00;101439.44;5053713;28;20380;-37
2023/08/12 06:25:17;;;;;;;4.75;3.42;;;;;;;19.42;100.00;101441.63;5053930;28;20028;-37
2023/08/12 06:27:43;;;;;;;4.40;3.63;;;;;;;19.38;100.00;101435.06;5053856;28;20024;-37
2023/08/12 06:30:09;;;;;;;4.40;3.63;;;;;;;19.40;100.00;101436.41;5053513;28;20044;-37
2023/08/12 06:32:35;;;;;;;5.03;3.30;;;;;;;19.37;100.00;101425.16;5053447;28;20033;-37
2023/08/12 06:35:00;;;;;;;4.95;3.33;;;;;;;19.27;100.00;101410.38;5053719;28;20102;-37
2023/08/12 06:37:26;;;;;;;4.28;2.85;;;;;;;19.44;100.00;101428.47;5053734;28;20445;-37
2023/08/12 06:39:51;;;;;;;3.45;2.70;;;;;;;19.46;100.00;101426.25;5053314;28;20083;-37
2023/08/12 06:42:17;;;;;;;4.47;2.70;;;;;;;19.43;100.00;101426.84;5054312;28;20360;-37
2023/08/12 06:44:42;;;;;;;5.03;3.05;;;;;;;19.48;100.00;101419.41;5054234;28;20123;-37
2023/08/12 06:47:07;;;;;;;3.53;3.00;;;;;;;19.49;100.00;101417.50;5053924;28;20025;-37
2023/08/12 06:49:33;;;;;;;3.42;2.60;;;;;;;19.47;100.00;101400.47;5053214;28;20479;-37
2023/08/12 06:51:58;;;;;;;3.53;2.85;;;;;;;19.53;100.00;101402.94;5053824;28;20031;-37
2023/08/12 06:54:24;;;;;;;3.58;2.47;;;;;;;19.43;100.00;101377.47;5053231;28;20424;-37
2023/08/12 06:56:50;;;;;;;3.45;2.70;;;;;;;19.53;100.00;101391.16;5053503;28;20056;-38
2023/08/12 06:59:15;;;;;;;3.15;2.58;;;;;;;19.51;100.00;101391.41;5052914;28;20049;-36
2023/08/12 07:01:41;;;;;;;4.28;2.30;;;;;;;19.59;100.00;101401.00;5053403;28;20104;-37
2023/08/12 07:04:06;;;;;;;2.97;2.45;;;;;;;19.54;100.00;101387.31;5053352;28;20029;-37
2023/08/12 07:06:31;;;;;;;3.95;2.60;;;;;;;19.66;100.00;101396.06;5052165;28;20115;-37
2023/08/12 07:08:57;;;;;;;3.20;2.45;;;;;;;19.60;100.00;101390.88;5053415;28;20035;-37
2023/08/12 07:11:22;;;;;;;3.22;2.33;;;;;;;19.74;100.00;101395.50;5053085;28;20025;-37
2023/08/12 07:13:48;;;;;;;2.90;2.28;;;;;;;19.77;100.00;101397.72;5053754;28;20056;-37
2023/08/12 07:16:13;;;;;;;2.90;2.47;;;;;;;19.79;100.00;101395.50;5053661;28;20029;-37
2023/08/12 07:18:38;;;;;;;3.60;2.63;;;;;;;19.77;100.00;101385.91;5053693;28;20428;-37
2023/08/12 07:21:04;;;;;;;2.92;2.63;;;;;;;19.80;100.00;101391.63;5056934;28;20514;-37
2023/08/12 07:23:29;;;;;;;2.50;2.30;;;;;;;19.80;100.00;101394.38;5057314;28;20027;-37
2023/08/12 07:25:55;;;;;;;2.47;2.10;;;;;;;19.78;100.00;101388.38;5057852;28;20078;-37
2023/08/12 07:28:20;;;;;;;2.78;2.20;;;;;;;19.78;100.00;101390.28;5057188;28;20115;-37
2023/08/12 07:30:45;;;;;;;3.38;2.80;;;;;;;19.75;100.00;101383.44;5057078;28;20024;-38
2023/08/12 07:33:11;;;;;;;2.13;1.92;;;;;;;19.80;100.00;101401.81;5057117;28;20471;-37
2023/08/12 07:35:36;;;;;;;2.50;2.08;;;;;;;19.78;100.00;101396.59;5056955;28;20025;-37
2023/08/12 07:38:02;;;;;;;2.10;1.90;;;;;;;19.74;100.00;101381.78;5057789;28;20108;-37
2023/08/12 07:40:27;;;;;;;2.00;1.80;;;;;;;19.84;100.00;101393.84;5056719;28;20032;-38
2023/08/12 07:42:52;;;;;;;2.50;1.90;;;;;;;19.85;100.00;101392.72;5057794;28;20425;-38
2023/08/12 07:45:18;;;;;;;3.05;2.10;;;;;;;19.83;100.00;101400.44;5057172;28;20047;-38
2023/08/12 07:47:43;;;;;;;3.75;2.00;;;;;;;19.86;100.00;101399.84;5056854;28;20021;-38
2023/08/12 07:50:10;;;;;;;2.58;1.80;;;;;;;19.80;100.00;101380.66;5056802;28;20021;-37
2023/08/12 07:52:36;;;;;;;1.77;1.67;;;;;;;19.89;100.00;101388.31;5055856;28;20377;-37
2023/08/12 07:55:01;;;;;;;2.53;2.00;;;;;;;19.94;100.00;101393.78;5056048;28;20028;-37
2023/08/12 07:57:27;;;;;;;1.83;1.60;;;;;;;19.91;100.00;101384.22;5056494;28;20132;-37
2023/08/12 07:59:52;;;;;;;1.90;1.63;;;;;;;19.99;100.00;101382.78;5057202;28;20114;-38
2023/08/12 08:02:17;;;;;;;2.38;1.75;;;;;;;20.07;100.00;101384.97;5056609;28;20035;-38
2023/08/12 08:04:43;;;;;;;3.08;1.60;;;;;;;20.12;100.00;101387.69;5056421;28;20032;-38
2023/08/12 08:07:08;;;;;;;2.05;1.50;;;;;;;20.13;100.00;101391.25;5057310;28;20068;-37
2023/08/12 08:09:34;;;;;;;2.30;1.73;;;;;;;20.18;100.00;101392.03;5056110;28;20064;-38
2023/08/12 08:12:00;;;;;;;1.80;1.30;;;;;;;20.19;100.00;101399.16;5056656;28;20036;-37
2023/08/12 08:14:27;;;;;;;1.42;1.33;;;;;;;20.20;100.00;101392.56;5056345;28;20507;-37
2023/08/12 08:16:52;;;;;;;1.35;1.25;;;;;;;20.21;100.00;101396.97;5056640;28;20049;-38
2023/08/12 08:19:18;;;;;;;2.05;1.42;;;;;;;20.23;100.00;101400.25;5056227;28;20049;-38
2023/08/12 08:21:44;;;;;;;1.35;1.02;;;;;;;20.25;100.00;101402.72;5057038;28;20390;-38
2023/08/12 08:24:11;;;;;;;1.50;1.38;;;;;;;20.32;100.00;101408.72;5056175;28;20063;-37
2023/08/12 08:26:36;;;;;;;1.20;1.10;;;;;;;20.32;100.00;101408.72;5056198;28;20051;-37
2023/08/12 08:29:02;;;;;;;1.40;1.30;;;;;;;20.31;100.00;101421.66;5055732;28;20484;-37
2023/08/12 08:31:28;;;;;;;1.15;1.05;;;;;;;20.32;100.00;101414.22;5055862;28;20029;-38
2023/08/12 08:33:53;;;;;;;1.75;1.25;;;;;;;20.32;100.00;101409.56;5056218;28;20415;-37
2023/08/12 08:36:18;;;;;;;1.90;1.70;;;;;;;20.25;100.00;101405.47;5055949;28;20060;-37
2023/08/12 08:38:44;;;;;;;1.60;1.50;;;;;;;20.28;100.00;101424.13;5055840;28;20033;-38
2023/08/12 08:41:10;;;;;;;2.40;1.80;;;;;;;20.26;100.00;101424.41;5055581;28;20052;-37
2023/08/12 08:43:37;;;;;;;1.92;1.63;;;;;;;20.27;100.00;101430.72;5056003;28;20024;-37
2023/08/12 08:46:03;;;;;;;2.15;1.60;;;;;;;20.29;100.00;101429.31;5056277;28;20116;-37
2023/08/12 08:48:29;;;;;;;2.15;1.95;;;;;;;20.24;100.00;101426.59;5055664;28;20025;-37
2023/08/12 08:50:55;;;;;;;2.22;2.03;;;;;;;20.26;100.00;101432.66;5055637;28;20025;-37
2023/08/12 08:53:21;;;;;;;2.20;2.00;;;;;;;20.24;100.00;101445.00;5055637;28;20025;-37
2023/08/12 08:55:47;;;;;;;2.95;1.92;;;;;;;20.23;100.00;101443.38;5055248;28;20021;-38
2023/08/12 08:58:12;;;;;;;1.90;1.80;;;;;;;20.19;100.00;101439.53;5055725;28;20047;-38
2023/08/12 09:00:39;;;;;;;2.33;1.73;;;;;;;20.14;100.00;101439.56;5055462;28;20021;-38
2023/08/12 09:03:06;;;;;;;2.00;1.80;;;;;;;20.13;100.00;101444.22;5055553;28;20350;-38
2023/08/12 09:05:33;;;;;;;2.20;2.00;;;;;;;20.11;100.00;101446.44;5055373;28;20070;-37
2023/08/12 09:08:00;;;;;;;1.90;1.80;;;;;;;20.13;100.00;101443.41;5056129;28;20025;-37
2023/08/12 09:10:26;;;;;;;2.20;1.98;;;;;;;20.14;100.00;101451.38;5054885;28;20020;-38
2023/08/12 09:12:54;;;;;;;2.00;1.75;;;;;;;20.20;100.00;101450.22;5055010;28;20091;-38
2023/08/12 09:15:20;;;;;;;1.85;1.27;;;;;;;20.12;100.00;101436.28;5055428;28;20445;-38
2023/08/12 09:17:45;;;;;;;1.35;1.13;;;;;;;20.10;100.00;101442.03;5054368;28;20035;-38
2023/08/12 09:20:11;;;;;;;1.13;1.00;;;;;;;20.16;100.00;101451.91;5054853;28;20053;-37
2023/08/12 09:22:38;;;;;;;2.55;1.20;;;;;;;20.17;100.00;101459.06;5054723;28;20083;-37
2023/08/12 09:25:04;;;;;;;1.25;0.90;;;;;;;20.30;100.00;101472.19;5055022;28;20024;-37
2023/08/12 09:27:33;;;;;;;1.40;1.05;;;;;;;20.41;100.00;101477.63;5055519;28;20457;-38
2023/08/12 09:29:58;;;;;;;2.30;1.08;;;;;;;20.44;100.00;101477.88;5054621;28;20028;-38
2023/08/12 09:32:24;;;;;;;2.55;0.80;;;;;;;20.44;100.00;101482.53;5055218;28;20357;-38
2023/08/12 09:34:51;;;;;;;1.30;0.73;;;;;;;20.41;100.00;101481.19;5054715;28;20021;-38
2023/08/12 09:37:17;;;;;;;1.27;0.70;;;;;;;20.46;100.00;101486.66;5054848;28;20071;-38
2023/08/12 09:39:42;;;;;;;2.38;0.70;;;;;;;20.48;100.00;101487.22;5054382;28;20453;-38
2023/08/12 09:42:09;;;;;;;1.55;0.90;;;;;;;20.47;100.00;101482.84;5054249;28;20107;-38
2023/08/12 09:44:35;;;;;;;1.48;1.08;;;;;;;20.51;100.00;101489.41;5054784;28;20031;-38
2023/08/12 09:47:01;;;;;;;1.20;1.10;;;;;;;20.63;100.00;101485.50;5055383;28;20028;-38
2023/08/12 09:49:27;;;;;;;1.55;1.17;;;;;;;20.65;100.00;101480.56;5054522;28;20457;-38
2023/08/12 09:51:53;;;;;;;1.92;1.20;;;;;;;20.74;100.00;101476.94;5055296;28;20028;-38
2023/08/12 09:54:19;;;;;;;1.63;1.27;;;;;;;20.76;100.00;101473.91;5054784;28;20048;-38
2023/08/12 09:56:47;;;;;;;2.35;1.40;;;;;;;20.83;100.00;101479.91;5054973;28;20025;-38
2023/08/12 09:59:20;;;;;;;2.53;1.23;;;;;;;20.65;100.00;101488.81;5054568;28;20510;-38
2023/08/12 10:01:45;;;;;;;1.75;1.20;;;;;;;20.58;100.00;101489.91;5054960;28;20060;-38
2023/08/12 10:04:14;;;;;;;2.65;1.13;;;;;;;20.52;100.00;101498.50;5054284;28;20046;-38
2023/08/12 10:06:40;;;;;;;1.92;1.38;;;;;;;20.44;100.00;101501.78;5054303;28;20079;-38
2023/08/12 10:09:08;;;;;;;3.20;1.23;;;;;;;20.41;100.00;101510.59;5054137;28;20449;-38
2023/08/12 10:11:34;;;;;;;4.40;1.60;;;;;;;20.40;100.00;101508.94;5054360;28;20036;-38
2023/08/12 10:14:01;;;;;;;2.95;1.20;;;;;;;20.45;100.00;101503.44;5054066;28;20021;-38
2023/08/12 10:16:29;;;;;;;5.25;1.60;;;;;;;20.58;100.00;101505.59;5054040;28;20036;-38
2023/08/12 10:18:57;;;;;;;4.45;1.77;;;;;;;20.68;100.00;101516.53;5053847;28;20017;-38
2023/08/12 10:21:24;;;;;;;3.67;1.70;;;;;;;20.78;100.00;101504.66;5054769;28;20044;-38
2023/08/12 10:23:50;;;;;;;2.65;1.50;;;;;;;20.85;100.00;101496.13;5053623;28;20111;-38
2023/08/12 10:26:17;;;;;;;3.20;1.40;;;;;;;21.07;100.00;101507.50;5053639;28;20021;-38
2023/08/12 10:28:43;;;;;;;4.10;1.45;;;;;;;21.19;100.00;101508.00;5053800;28;20404;-38
2023/08/12 10:31:11;;;;;;;4.47;1.50;;;;;;;21.25;100.00;101508.75;5053564;28;20052;-38
2023/08/12 10:33:40;;;;;;;3.75;1.15;;;;;;;21.28;100.00;101497.19;5053773;28;20013;-38
2023/08/12 10:36:07;;;;;;;6.47;1.80;;;;;;;21.34;100.00;101485.88;5054079;28;20031;-38
2023/08/12 10:38:33;;;;;;;3.28;1.38;;;;;;;21.54;100.00;101487.66;5054171;28;20016;-38
2023/08/12 10:41:21;;;;;;;3.22;1.20;;;;;;;21.74;100.00;101489.38;5053662;28;20036;-38
2023/08/12 10:43:58;;;;;;;2.58;0.90;;;;;;;21.81;100.00;101497.28;5054223;28;20021;-38
2023/08/12 10:46:30;;;;;;;4.55;1.20;;;;;;;22.03;100.00;101496.78;5053647;28;20100;-38
2023/08/12 10:49:02;;;;;;;3.03;1.02;;;;;;;22.04;100.00;101498.44;5053810;28;20029;-38
2023/08/12 10:51:50;;;;;;;3.72;1.00;;;;;;;22.08;100.00;101505.81;5053599;28;20067;-38
2023/08/12 10:54:31;;;;;;;4.00;0.95;;;;;;;22.12;100.00;101494.25;5053348;28;20028;-38
2023/08/12 10:57:08;;;;;;;1.58;0.77;;;;;;;22.34;100.00;101500.84;5053790;28;20092;-38
2023/08/12 10:59:45;;;;;;;2.72;1.17;;;;;;;22.60;100.00;101500.56;5053544;28;20055;-38
2023/08/12 11:02:24;;;;;;;5.32;1.42;;;;;;;22.54;100.00;101512.75;5054014;28;20041;-38
2023/08/12 11:04:56;;;;;;;3.17;1.17;;;;;;;22.39;100.00;101505.47;5053435;28;20017;-38
2023/08/12 11:07:29;;;;;;;5.85;1.55;;;;;;;22.39;100.00;101513.75;5054188;28;20021;-38
2023/08/12 11:09:59;;;;;;;5.22;1.50;;;;;;;22.49;100.00;101507.28;5053658;28;20029;-38
2023/08/12 11:12:34;;;;;;;7.38;1.73;;;;;;;22.66;100.00;101513.16;5053951;28;20357;-38